createdAt,value
2023-04-24T00:01:47.121Z,9.70
2023-04-24T00:04:17.690Z,9.80
2023-04-24T00:06:50.643Z,9.80
2023-04-24T00:09:18.822Z,9.90
2023-04-24T00:11:49.635Z,9.90
2023-04-24T00:14:19.042Z,9.30
2023-04-24T00:16:49.702Z,10.30
2023-04-24T00:19:22.393Z,9.60
2023-04-24T00:21:53.357Z,9.50
2023-04-24T00:24:23.145Z,9.40
2023-04-24T00:26:52.489Z,9.30
2023-04-24T00:29:20.935Z,9.20
2023-04-24T00:31:50.567Z,9.20
2023-04-24T00:34:19.206Z,9.20
2023-04-24T00:36:50.081Z,9.20
2023-04-24T00:39:21.432Z,9.10
2023-04-24T00:41:53.089Z,9.00
2023-04-24T00:44:22.710Z,8.60
2023-04-24T00:46:56.714Z,8.20
2023-04-24T00:49:26.515Z,9.00
2023-04-24T00:51:57.125Z,9.10
2023-04-24T00:54:27.902Z,8.50
2023-04-24T00:56:57.323Z,9.10
2023-04-24T00:59:25.694Z,8.50
2023-04-24T01:01:57.029Z,9.50
2023-04-24T01:04:25.483Z,8.00
2023-04-24T01:06:56.116Z,9.40
2023-04-24T01:09:27.057Z,7.90
2023-04-24T01:11:57.207Z,8.40
2023-04-24T01:14:26.918Z,9.10
2023-04-24T01:16:56.559Z,8.50
2023-04-24T01:19:24.713Z,8.10
2023-04-24T01:21:56.660Z,9.10
2023-04-24T01:24:26.244Z,9.50
2023-04-24T01:26:56.069Z,9.10
2023-04-24T01:29:24.840Z,8.50
2023-04-24T01:31:54.493Z,7.80
2023-04-24T01:34:23.922Z,9.10
2023-04-24T01:36:52.094Z,8.10
2023-04-24T01:39:24.127Z,9.00
2023-04-24T01:41:55.917Z,7.80
2023-04-24T01:44:25.915Z,8.90
2023-04-24T01:46:55.181Z,7.90
2023-04-24T01:49:23.944Z,7.90
2023-04-24T01:51:53.312Z,8.40
2023-04-24T01:54:21.741Z,8.80
2023-04-24T01:56:50.932Z,8.90
2023-04-24T01:59:23.966Z,8.50
2023-04-24T02:01:54.550Z,8.50
2023-04-24T02:04:22.956Z,8.10
2023-04-24T02:06:53.685Z,8.30
2023-04-24T02:09:23.122Z,8.10
2023-04-24T02:11:54.022Z,8.70
2023-04-24T02:14:24.728Z,9.00
2023-04-24T02:16:54.394Z,9.10
2023-04-24T02:19:22.634Z,8.10
2023-04-24T02:21:53.849Z,9.70
2023-04-24T02:24:21.971Z,9.90
2023-04-24T02:26:50.147Z,9.80
2023-04-24T02:29:18.930Z,9.70
2023-04-24T02:31:48.737Z,9.50
2023-04-24T02:34:17.394Z,9.90
2023-04-24T02:36:45.457Z,9.40
2023-04-24T02:39:17.549Z,9.10
2023-04-24T02:41:48.081Z,9.50
2023-04-24T02:44:18.681Z,9.50
2023-04-24T02:46:49.447Z,8.20
2023-04-24T02:49:18.525Z,7.80
2023-04-24T02:51:48.158Z,7.60
2023-04-24T02:54:17.617Z,8.50
2023-04-24T02:56:45.804Z,8.40
2023-04-24T02:59:15.474Z,7.80
2023-04-24T03:01:44.999Z,8.00
2023-04-24T03:04:14.826Z,8.20
2023-04-24T03:06:45.536Z,8.40
2023-04-24T03:09:13.729Z,9.40
2023-04-24T03:11:43.867Z,9.20
2023-04-24T03:14:13.318Z,9.60
2023-04-24T03:16:43.897Z,9.00
2023-04-24T03:19:12.235Z,9.10
2023-04-24T03:21:51.955Z,9.10
2023-04-24T03:24:21.750Z,9.20
2023-04-24T03:26:51.442Z,9.30
2023-04-24T03:29:41.168Z,9.30
2023-04-24T03:32:12.241Z,8.80
2023-04-24T03:34:41.005Z,8.40
2023-04-24T03:37:15.168Z,8.70
2023-04-24T03:39:48.938Z,10.80
2023-04-24T03:42:19.727Z,8.90
2023-04-24T03:44:56.080Z,9.10
2023-04-24T03:47:30.894Z,8.70
2023-04-24T03:50:03.577Z,8.70
2023-04-24T03:52:36.495Z,9.90
2023-04-24T03:55:07.484Z,9.30
2023-04-24T03:57:40.843Z,10.10
2023-04-24T04:00:17.120Z,10.50
2023-04-24T04:02:52.924Z,9.60
2023-04-24T04:05:22.905Z,9.50
2023-04-24T04:07:53.787Z,10.00
2023-04-24T04:10:23.419Z,9.70
2023-04-24T04:12:52.819Z,9.80
2023-04-24T04:15:21.186Z,10.00
2023-04-24T04:17:51.924Z,9.80
2023-04-24T04:20:20.855Z,9.40
2023-04-24T04:22:51.800Z,9.60
2023-04-24T04:25:30.098Z,9.60
2023-04-24T04:28:00.550Z,9.70
2023-04-24T04:30:30.763Z,8.80
2023-04-24T04:33:05.419Z,10.10
2023-04-24T04:35:37.358Z,9.80
2023-04-24T04:38:10.646Z,10.40
2023-04-24T04:41:05.409Z,10.40
2023-04-24T04:43:36.985Z,8.80
2023-04-24T04:46:07.135Z,9.80
2023-04-24T04:48:49.008Z,8.90
2023-04-24T04:51:17.694Z,9.90
2023-04-24T04:53:50.093Z,9.90
2023-04-24T04:56:19.524Z,10.70
2023-04-24T04:58:49.168Z,9.30
2023-04-24T05:01:19.436Z,9.80
2023-04-24T05:03:51.413Z,9.90
2023-04-24T05:06:24.322Z,9.00
2023-04-24T05:08:59.365Z,10.00
2023-04-24T05:11:35.698Z,9.90
2023-04-24T05:14:06.305Z,8.70
2023-04-24T05:16:38.830Z,10.10
2023-04-24T05:19:09.095Z,9.40
2023-04-24T05:21:43.910Z,8.60
2023-04-24T05:24:16.914Z,9.50
2023-04-24T05:27:08.306Z,10.20
2023-04-24T05:29:43.640Z,9.00
2023-04-24T05:32:13.510Z,9.50
2023-04-24T05:34:43.084Z,10.40
2023-04-24T05:37:13.697Z,10.50
2023-04-24T05:39:44.697Z,8.80
2023-04-24T05:42:13.273Z,8.70
2023-04-24T05:44:41.421Z,10.10
2023-04-24T05:47:11.143Z,10.10
2023-04-24T05:49:40.892Z,9.60
2023-04-24T05:52:10.740Z,10.30
2023-04-24T05:54:40.502Z,9.00
2023-04-24T05:57:12.916Z,9.90
2023-04-24T05:59:55.017Z,7.10
2023-04-24T06:02:24.521Z,9.50
2023-04-24T06:04:54.873Z,10.10
2023-04-24T06:07:28.275Z,10.10
2023-04-24T06:09:56.848Z,8.80
2023-04-24T06:12:28.851Z,9.10
2023-04-24T06:15:02.313Z,9.20
2023-04-24T06:17:51.716Z,10.50
2023-04-24T06:20:22.844Z,9.20
2023-04-24T06:22:53.527Z,10.30
2023-04-24T06:25:23.121Z,9.20
2023-04-24T06:27:55.452Z,9.80
2023-04-24T06:30:25.729Z,9.90
2023-04-24T06:32:55.847Z,9.80
2023-04-24T06:35:28.076Z,9.80
2023-04-24T06:37:58.431Z,9.80
2023-04-24T06:40:27.106Z,9.80
2023-04-24T06:43:00.383Z,9.90
2023-04-24T06:45:30.537Z,9.70
2023-04-24T06:48:00.440Z,9.80
2023-04-24T06:50:30.049Z,9.80
2023-04-24T06:53:00.267Z,8.90
2023-04-24T06:55:30.147Z,9.80
2023-04-24T06:58:00.292Z,8.70
2023-04-24T07:00:28.654Z,9.80
2023-04-24T07:02:57.478Z,9.80
2023-04-24T07:05:27.171Z,10.90
2023-04-24T07:07:58.034Z,10.70
2023-04-24T07:10:30.076Z,9.80
2023-04-24T07:13:03.209Z,10.00
2023-04-24T07:15:33.723Z,10.00
2023-04-24T07:18:05.580Z,10.20
2023-04-24T07:20:35.402Z,9.80
2023-04-24T07:23:05.051Z,10.20
2023-04-24T07:25:34.861Z,10.60
2023-04-24T07:28:06.815Z,10.10
2023-04-24T07:30:35.008Z,11.40
2023-04-24T07:33:05.056Z,10.20
2023-04-24T07:35:33.237Z,10.20
2023-04-24T07:38:02.941Z,10.20
2023-04-24T07:40:31.279Z,10.60
2023-04-24T07:43:02.416Z,10.20
2023-04-24T07:45:32.242Z,10.20
2023-04-24T07:48:02.104Z,10.30
2023-04-24T07:50:31.926Z,10.30
2023-04-24T07:53:02.688Z,10.30
2023-04-24T07:55:32.203Z,10.40
2023-04-24T07:58:01.995Z,10.60
2023-04-24T08:00:31.584Z,10.60
2023-04-24T08:03:02.457Z,10.30
2023-04-24T08:05:32.136Z,10.90
2023-04-24T08:08:03.084Z,10.70
2023-04-24T08:10:31.417Z,10.90
2023-04-24T08:12:59.708Z,10.90
2023-04-24T08:15:32.941Z,10.80
2023-04-24T08:18:01.421Z,10.80
2023-04-24T08:20:31.021Z,10.30
2023-04-24T08:22:59.488Z,10.50
2023-04-24T08:25:30.128Z,10.50
2023-04-24T08:27:59.780Z,10.60
2023-04-24T08:30:32.529Z,10.80
2023-04-24T08:33:02.202Z,10.90
2023-04-24T08:35:33.069Z,11.00
2023-04-24T08:38:01.264Z,10.30
2023-04-24T08:40:32.046Z,11.10
2023-04-24T08:43:01.443Z,11.60
2023-04-24T08:45:31.304Z,11.10
2023-04-24T08:48:02.591Z,11.00
2023-04-24T08:50:33.874Z,10.90
2023-04-24T08:53:05.097Z,10.60
2023-04-24T08:55:38.518Z,10.40
2023-04-24T08:58:08.781Z,11.50
2023-04-24T09:00:42.110Z,12.60
2023-04-24T09:03:13.127Z,10.60
2023-04-24T09:05:46.750Z,10.70
2023-04-24T09:08:18.159Z,10.70
2023-04-24T09:10:47.600Z,10.10
2023-04-24T09:13:18.387Z,11.30
2023-04-24T09:15:49.300Z,10.20
2023-04-24T09:18:18.677Z,10.60
2023-04-24T09:21:05.250Z,10.40
2023-04-24T09:23:36.418Z,10.90
2023-04-24T09:26:06.946Z,10.40
2023-04-24T09:28:38.736Z,10.20
2023-04-24T09:31:11.856Z,10.90
2023-04-24T09:33:41.785Z,10.20
2023-04-24T09:36:10.692Z,11.30
2023-04-24T09:38:40.765Z,11.20
2023-04-24T09:41:15.282Z,11.30
2023-04-24T09:43:47.511Z,11.20
2023-04-24T09:46:22.544Z,10.30
2023-04-24T09:48:52.078Z,10.80
2023-04-24T09:51:38.316Z,10.90
2023-04-24T09:54:14.164Z,11.10
2023-04-24T09:56:47.298Z,11.00
2023-04-24T09:59:18.433Z,11.40
2023-04-24T10:01:51.718Z,10.60
2023-04-24T10:04:26.569Z,11.20
2023-04-24T10:06:57.685Z,9.60
2023-04-24T10:09:30.086Z,9.90
2023-04-24T10:11:58.364Z,10.30
2023-04-24T10:14:29.630Z,10.90
2023-04-24T10:17:00.410Z,10.20
2023-04-24T10:19:30.211Z,9.60
2023-04-24T10:22:00.402Z,10.10
2023-04-24T10:24:30.018Z,10.40
2023-04-24T10:26:59.020Z,8.80
2023-04-24T10:29:29.153Z,9.40
2023-04-24T10:31:59.955Z,8.60
2023-04-24T10:34:29.807Z,8.20
2023-04-24T10:36:59.370Z,9.60
2023-04-24T10:39:33.024Z,9.90
2023-04-24T10:42:02.494Z,8.80
2023-04-24T10:44:39.222Z,8.70
2023-04-24T10:47:15.824Z,9.50
2023-04-24T10:49:46.647Z,9.30
2023-04-24T10:52:17.825Z,7.40
2023-04-24T10:54:49.461Z,9.30
2023-04-24T10:57:31.733Z,8.70
2023-04-24T11:00:19.822Z,8.90
2023-04-24T11:02:51.784Z,8.30
2023-04-24T11:05:23.315Z,8.90
2023-04-24T11:08:15.997Z,9.10
2023-04-24T11:10:59.457Z,8.20
2023-04-24T11:13:34.460Z,9.00
2023-04-24T11:16:17.732Z,9.00
2023-04-24T11:18:51.200Z,8.60
2023-04-24T11:21:20.023Z,8.30
2023-04-24T11:23:49.400Z,8.10
2023-04-24T11:26:25.941Z,8.30
2023-04-24T11:28:55.541Z,9.10
2023-04-24T11:31:43.439Z,8.70
2023-04-24T11:34:16.405Z,9.10
2023-04-24T11:36:46.419Z,7.60
2023-04-24T11:39:15.956Z,7.60
2023-04-24T11:41:45.472Z,8.00
2023-04-24T11:44:17.136Z,8.90
2023-04-24T11:46:45.305Z,8.90
2023-04-24T11:49:16.174Z,8.70
2023-04-24T11:51:53.107Z,8.00
2023-04-24T11:54:25.090Z,9.20
2023-04-24T11:56:53.266Z,7.90
2023-04-24T11:59:23.976Z,8.20
2023-04-24T12:01:53.329Z,7.60
2023-04-24T12:04:23.144Z,7.60
2023-04-24T12:07:02.263Z,8.30
2023-04-24T12:09:44.311Z,9.10
2023-04-24T12:12:14.402Z,8.40
2023-04-24T12:14:51.773Z,9.00
2023-04-24T12:17:26.486Z,8.70
2023-04-24T12:20:02.657Z,8.90
2023-04-24T12:22:47.530Z,9.00
2023-04-24T12:25:16.828Z,8.80
2023-04-24T12:27:48.145Z,7.50
2023-04-24T12:30:19.660Z,8.90
2023-04-24T12:32:50.009Z,8.80
2023-04-24T12:35:26.160Z,7.60
2023-04-24T12:40:28.549Z,9.00
2023-04-24T12:42:58.210Z,8.20
2023-04-24T12:45:28.788Z,7.50
2023-04-24T12:47:57.316Z,8.50
2023-04-24T12:50:28.044Z,9.10
2023-04-24T12:52:57.453Z,8.00
2023-04-24T12:55:26.277Z,9.20
2023-04-24T12:57:56.551Z,8.00
2023-04-24T13:00:27.642Z,8.30
2023-04-24T13:02:58.056Z,7.70
2023-04-24T13:05:27.997Z,7.60
2023-04-24T13:07:57.384Z,8.80
2023-04-24T13:10:28.120Z,7.80
2023-04-24T13:12:57.938Z,7.80
2023-04-24T13:15:29.241Z,7.60
2023-04-24T13:17:58.816Z,8.20
2023-04-24T13:20:29.810Z,8.60
2023-04-24T13:22:58.314Z,8.30
2023-04-24T13:25:28.008Z,8.20
2023-04-24T13:27:57.950Z,8.70
2023-04-24T13:30:28.999Z,8.20
2023-04-24T13:32:58.873Z,8.80
2023-04-24T13:35:30.175Z,7.80
2023-04-24T13:37:58.317Z,10.40
2023-04-24T13:40:26.594Z,8.80
2023-04-24T13:42:54.760Z,9.00
2023-04-24T13:45:25.889Z,8.60
2023-04-24T13:47:55.982Z,9.20
2023-04-24T13:50:26.668Z,8.70
2023-04-24T13:52:57.695Z,8.40
2023-04-24T13:55:28.710Z,8.30
2023-04-24T13:57:58.185Z,7.50
2023-04-24T14:02:57.894Z,8.00
2023-04-24T14:05:28.642Z,7.60
2023-04-24T14:07:58.412Z,8.10
2023-04-24T14:10:28.174Z,8.10
2023-04-24T14:12:56.511Z,8.60
2023-04-24T14:15:26.019Z,7.70
2023-04-24T14:20:24.771Z,8.00
2023-04-24T14:22:54.309Z,7.60
2023-04-24T14:25:25.095Z,7.70
2023-04-24T14:27:54.472Z,7.40
2023-04-24T14:30:24.212Z,7.10
2023-04-24T14:32:54.035Z,7.90
2023-04-24T14:35:25.325Z,8.70
2023-04-24T14:37:54.615Z,8.50
2023-04-24T14:42:58.873Z,8.20
2023-04-24T14:45:28.944Z,8.90
2023-04-24T14:47:58.731Z,8.80
2023-04-24T14:50:30.407Z,8.50
2023-04-24T14:53:00.289Z,9.20
2023-04-24T14:55:31.456Z,8.50
2023-04-24T14:58:01.009Z,7.60
2023-04-24T15:00:29.440Z,7.50
2023-04-24T15:02:59.527Z,8.10
2023-04-24T15:05:28.291Z,8.30
2023-04-24T15:07:56.469Z,8.30
2023-04-24T15:10:26.515Z,8.10
2023-04-24T15:12:57.484Z,8.40
2023-04-24T15:15:27.505Z,8.70
2023-04-24T15:17:58.574Z,8.60
2023-04-24T15:20:28.055Z,8.30
2023-04-24T15:22:58.547Z,8.50
2023-04-24T15:28:01.121Z,7.80
2023-04-24T15:30:31.498Z,8.30
2023-04-24T15:33:01.353Z,7.40
2023-04-24T15:35:30.084Z,8.30
2023-04-24T15:37:59.549Z,8.70
2023-04-24T15:40:28.666Z,8.20
2023-04-24T15:42:59.447Z,9.20
2023-04-24T15:47:58.508Z,8.70
2023-04-24T15:50:27.992Z,9.30
2023-04-24T15:52:58.535Z,9.30
2023-04-24T15:55:28.896Z,8.50
2023-04-24T15:58:01.241Z,7.90
2023-04-24T16:00:34.217Z,7.40
2023-04-24T16:03:03.279Z,7.80
2023-04-24T16:05:32.701Z,8.40
2023-04-24T16:08:01.129Z,9.00
2023-04-24T16:10:29.716Z,8.80
2023-04-24T16:13:03.557Z,7.70
2023-04-24T16:15:32.074Z,9.30
2023-04-24T16:18:01.444Z,8.60
2023-04-24T16:20:30.022Z,8.90
2023-04-24T16:22:58.190Z,8.00
2023-04-24T16:25:27.746Z,9.00
2023-04-24T16:27:57.235Z,9.60
2023-04-24T16:30:27.949Z,8.20
2023-04-24T16:32:57.243Z,9.70
2023-04-24T16:35:25.468Z,8.10
2023-04-24T16:37:55.898Z,9.10
2023-04-24T16:40:24.050Z,9.20
2023-04-24T16:42:52.850Z,8.80
2023-04-24T16:45:23.007Z,7.90
2023-04-24T16:47:55.335Z,9.30
2023-04-24T16:50:24.676Z,8.70
2023-04-24T16:55:25.179Z,8.60
2023-04-24T16:57:54.527Z,8.90
2023-04-24T17:02:53.889Z,7.90
2023-04-24T17:05:23.435Z,9.40
2023-04-24T17:07:53.028Z,7.80
2023-04-24T17:10:21.554Z,9.20
2023-04-24T17:12:50.015Z,8.30
2023-04-24T17:15:19.634Z,8.90
2023-04-24T17:17:51.500Z,9.00
2023-04-24T17:20:23.937Z,9.70
2023-04-24T17:22:53.652Z,9.70
2023-04-24T17:25:23.344Z,10.40
2023-04-24T17:27:53.664Z,9.70
2023-04-24T17:30:23.032Z,8.20
2023-04-24T17:32:52.479Z,10.60
2023-04-24T17:35:23.405Z,7.90
2023-04-24T17:37:51.722Z,8.80
2023-04-24T17:40:21.053Z,7.90
2023-04-24T17:42:50.548Z,8.40
2023-04-24T17:45:19.977Z,9.70
2023-04-24T17:47:50.625Z,8.40
2023-04-24T17:50:22.458Z,8.60
2023-04-24T17:52:51.924Z,8.80
2023-04-24T17:57:49.958Z,7.80
2023-04-24T18:00:20.798Z,7.90
2023-04-24T18:02:52.376Z,7.50
2023-04-24T18:05:23.704Z,8.80
2023-04-24T18:07:54.464Z,7.90
2023-04-24T18:10:24.765Z,7.80
2023-04-24T18:12:54.838Z,8.20
2023-04-24T18:15:24.777Z,8.50
2023-04-24T18:17:54.210Z,7.90
2023-04-24T18:20:25.103Z,7.90
2023-04-24T18:22:54.544Z,8.40
2023-04-24T18:25:26.781Z,7.70
2023-04-24T18:27:55.958Z,7.70
2023-04-24T18:30:26.242Z,9.40
2023-04-24T18:32:57.294Z,8.40
2023-04-24T18:35:28.011Z,8.00
2023-04-24T18:40:26.514Z,8.90
2023-04-24T18:42:55.731Z,8.10
2023-04-24T18:45:24.291Z,7.50
2023-04-24T18:47:52.728Z,7.40
2023-04-24T18:50:22.443Z,8.10
2023-04-24T18:52:54.463Z,7.10
2023-04-24T18:55:24.070Z,7.80
2023-04-24T18:57:53.367Z,7.70
2023-04-24T19:00:22.997Z,8.00
2023-04-24T19:02:53.696Z,7.00
2023-04-24T19:05:23.048Z,6.40
2023-04-24T19:07:54.963Z,6.50
2023-04-24T19:10:23.119Z,7.30
2023-04-24T19:12:56.554Z,7.70
2023-04-24T19:15:25.212Z,7.40
2023-04-24T19:17:55.802Z,7.00
2023-04-24T19:20:26.202Z,8.00
2023-04-24T19:22:55.810Z,7.60
2023-04-24T19:25:24.448Z,7.40
2023-04-24T19:27:53.846Z,7.80
2023-04-24T19:30:23.388Z,7.90
2023-04-24T19:32:52.819Z,7.40
2023-04-24T19:35:21.170Z,7.60
2023-04-24T19:37:49.897Z,7.80
2023-04-24T19:40:22.045Z,8.20
2023-04-24T19:42:50.213Z,7.40
2023-04-24T19:45:18.657Z,6.80
2023-04-24T19:47:47.604Z,6.30
2023-04-24T19:50:17.024Z,7.00
2023-04-24T19:52:45.273Z,7.10
2023-04-24T19:55:14.814Z,6.20
2023-04-24T19:57:44.352Z,7.00
2023-04-24T20:00:14.156Z,7.10
2023-04-24T20:02:43.910Z,7.10
2023-04-24T20:05:13.792Z,7.50
2023-04-24T20:07:43.268Z,7.60
2023-04-24T20:10:13.214Z,7.00
2023-04-24T20:12:44.014Z,7.60
2023-04-24T20:15:13.501Z,7.30
2023-04-24T20:17:41.685Z,6.90
2023-04-24T20:20:13.756Z,7.90
2023-04-24T20:22:43.208Z,7.20
2023-04-24T20:25:13.871Z,7.80
2023-04-24T20:27:43.370Z,6.80
2023-04-24T20:30:13.892Z,7.30
2023-04-24T20:32:43.395Z,7.10
2023-04-24T20:35:14.220Z,7.60
2023-04-24T20:37:42.490Z,7.40
2023-04-24T20:40:15.588Z,7.20
2023-04-24T20:42:46.959Z,6.70
2023-04-24T20:45:17.893Z,7.20
2023-04-24T20:47:50.028Z,6.80
2023-04-24T20:50:20.563Z,7.10
2023-04-24T20:52:49.962Z,7.50
2023-04-24T20:55:18.337Z,7.30
2023-04-24T20:57:49.141Z,7.50
2023-04-24T21:00:19.250Z,7.10
2023-04-24T21:02:48.664Z,7.00
2023-04-24T21:05:17.601Z,7.30
2023-04-24T21:10:16.847Z,6.60
2023-04-24T21:12:44.968Z,6.40
2023-04-24T21:15:16.071Z,6.90
2023-04-24T21:17:46.080Z,6.80
2023-04-24T21:20:16.115Z,6.80
2023-04-24T21:22:44.713Z,6.50
2023-04-24T21:25:15.283Z,6.30
2023-04-24T21:27:44.784Z,6.20
2023-04-24T21:30:15.059Z,5.60
2023-04-24T21:32:43.337Z,6.20
2023-04-24T21:35:13.834Z,6.10
2023-04-24T21:37:41.983Z,6.00
2023-04-24T21:40:13.598Z,6.10
2023-04-24T21:42:43.675Z,6.00
2023-04-24T21:45:15.041Z,6.00
2023-04-24T21:47:43.303Z,6.00
2023-04-24T21:50:12.912Z,5.90
2023-04-24T21:52:42.344Z,5.80
2023-04-24T21:55:10.917Z,5.80
2023-04-24T21:57:39.237Z,5.80
2023-04-24T22:00:11.472Z,5.70
2023-04-24T22:02:43.109Z,5.60
2023-04-24T22:05:15.711Z,4.20
2023-04-24T22:07:48.437Z,5.50
2023-04-24T22:10:21.063Z,5.40
2023-04-24T22:12:50.604Z,5.50
2023-04-24T22:15:19.988Z,5.40
2023-04-24T22:17:49.991Z,5.40
2023-04-24T22:20:21.375Z,5.50
2023-04-24T22:22:50.777Z,5.50
2023-04-24T22:25:20.863Z,5.60
2023-04-24T22:27:50.685Z,5.70
2023-04-24T22:30:21.447Z,5.70
2023-04-24T22:32:51.140Z,5.60
2023-04-24T22:35:21.858Z,5.60
2023-04-24T22:37:55.896Z,6.10
2023-04-24T22:40:26.666Z,5.50
2023-04-24T22:42:56.080Z,5.50
2023-04-24T22:45:26.166Z,5.50
2023-04-24T22:47:55.771Z,5.50
2023-04-24T22:50:25.516Z,5.40
2023-04-24T22:52:54.816Z,5.50
2023-04-24T22:55:25.403Z,5.40
2023-04-24T22:57:53.560Z,5.40
2023-04-24T23:00:23.014Z,4.70
2023-04-24T23:02:54.343Z,5.50
2023-04-24T23:05:25.213Z,6.40
2023-04-24T23:07:56.140Z,5.80
2023-04-24T23:10:24.392Z,5.60
2023-04-24T23:12:52.627Z,5.70
2023-04-24T23:15:20.928Z,5.80
2023-04-24T23:17:51.533Z,5.80
2023-04-24T23:20:25.089Z,5.90
2023-04-24T23:22:53.461Z,6.00
2023-04-24T23:25:22.894Z,6.10
2023-04-24T23:27:52.649Z,6.10
2023-04-24T23:30:22.044Z,6.10
2023-04-24T23:32:52.723Z,6.20
2023-04-24T23:35:20.887Z,6.20
2023-04-24T23:37:51.897Z,6.20
2023-04-24T23:40:21.470Z,6.20
2023-04-24T23:42:59.724Z,6.20
2023-04-24T23:45:35.607Z,6.30
2023-04-24T23:48:04.530Z,6.30
2023-04-24T23:50:32.657Z,6.30
2023-04-24T23:53:04.743Z,6.30
2023-04-24T23:55:33.024Z,6.30
2023-04-24T23:58:01.241Z,6.30
